sensor_id;sensor_type;location;lat;lon;timestamp;P1;durP1;ratioP1;P2;durP2;ratioP2
3841;SDS011;1936;47.074;15.336;2023-12-07T00:01:43;21.55;;;12.13;;
3841;SDS011;1936;47.074;15.336;2023-12-07T00:03:47;20.20;;;12.30;;
3841;SDS011;1936;47.074;15.336;2023-12-07T00:05:50;27.13;;;16.20;;
3841;SDS011;1936;47.074;15.336;2023-12-07T00:07:56;33.20;;;19.00;;
3841;SDS011;1936;47.074;15.336;2023-12-07T00:09:59;27.55;;;15.23;;
3841;SDS011;1936;47.074;15.336;2023-12-07T00:12:03;24.08;;;13.38;;
3841;SDS011;1936;47.074;15.336;2023-12-07T00:14:07;25.90;;;13.25;;
3841;SDS011;1936;47.074;15.336;2023-12-07T00:16:11;25.42;;;14.65;;
3841;SDS011;1936;47.074;15.336;2023-12-07T00:18:14;25.25;;;14.10;;
3841;SDS011;1936;47.074;15.336;2023-12-07T00:20:16;29.35;;;14.32;;
3841;SDS011;1936;47.074;15.336;2023-12-07T00:22:20;32.92;;;14.77;;
3841;SDS011;1936;47.074;15.336;2023-12-07T00:24:28;31.35;;;14.75;;
3841;SDS011;1936;47.074;15.336;2023-12-07T00:26:32;24.42;;;13.63;;
3841;SDS011;1936;47.074;15.336;2023-12-07T00:28:35;27.95;;;17.30;;
3841;SDS011;1936;47.074;15.336;2023-12-07T00:30:39;27.23;;;15.07;;
3841;SDS011;1936;47.074;15.336;2023-12-07T00:32:41;24.15;;;14.15;;
3841;SDS011;1936;47.074;15.336;2023-12-07T00:34:45;20.13;;;12.93;;
3841;SDS011;1936;47.074;15.336;2023-12-07T00:36:49;29.27;;;14.95;;
3841;SDS011;1936;47.074;15.336;2023-12-07T00:38:53;27.08;;;14.88;;
3841;SDS011;1936;47.074;15.336;2023-12-07T00:40:58;22.08;;;13.02;;
3841;SDS011;1936;47.074;15.336;2023-12-07T00:43:01;41.40;;;17.23;;
3841;SDS011;1936;47.074;15.336;2023-12-07T00:45:05;73.45;;;15.90;;
3841;SDS011;1936;47.074;15.336;2023-12-07T00:47:09;26.80;;;13.93;;
3841;SDS011;1936;47.074;15.336;2023-12-07T00:49:13;21.73;;;12.25;;
3841;SDS011;1936;47.074;15.336;2023-12-07T00:51:16;19.75;;;12.65;;
3841;SDS011;1936;47.074;15.336;2023-12-07T00:53:20;15.98;;;10.65;;
3841;SDS011;1936;47.074;15.336;2023-12-07T00:55:23;18.20;;;12.10;;
3841;SDS011;1936;47.074;15.336;2023-12-07T00:57:27;29.52;;;16.08;;
3841;SDS011;1936;47.074;15.336;2023-12-07T00:59:30;15.70;;;9.68;;
3841;SDS011;1936;47.074;15.336;2023-12-07T01:01:35;14.27;;;7.90;;
3841;SDS011;1936;47.074;15.336;2023-12-07T01:03:40;22.15;;;11.15;;
3841;SDS011;1936;47.074;15.336;2023-12-07T01:05:43;26.92;;;12.90;;
3841;SDS011;1936;47.074;15.336;2023-12-07T01:07:47;25.55;;;12.93;;
3841;SDS011;1936;47.074;15.336;2023-12-07T01:09:50;17.73;;;8.80;;
3841;SDS011;1936;47.074;15.336;2023-12-07T01:11:53;26.95;;;11.20;;
3841;SDS011;1936;47.074;15.336;2023-12-07T01:13:58;26.35;;;13.20;;
3841;SDS011;1936;47.074;15.336;2023-12-07T01:16:01;24.42;;;10.70;;
3841;SDS011;1936;47.074;15.336;2023-12-07T01:18:04;24.55;;;11.57;;
3841;SDS011;1936;47.074;15.336;2023-12-07T01:20:08;26.23;;;13.00;;
3841;SDS011;1936;47.074;15.336;2023-12-07T01:22:14;28.52;;;12.65;;
3841;SDS011;1936;47.074;15.336;2023-12-07T01:24:17;80.93;;;14.95;;
3841;SDS011;1936;47.074;15.336;2023-12-07T01:26:20;130.23;;;17.35;;
3841;SDS011;1936;47.074;15.336;2023-12-07T01:28:24;25.58;;;11.60;;
3841;SDS011;1936;47.074;15.336;2023-12-07T01:30:29;25.15;;;11.70;;
3841;SDS011;1936;47.074;15.336;2023-12-07T01:32:32;20.80;;;11.55;;
3841;SDS011;1936;47.074;15.336;2023-12-07T01:34:35;30.15;;;11.40;;
3841;SDS011;1936;47.074;15.336;2023-12-07T01:36:39;22.27;;;12.13;;
3841;SDS011;1936;47.074;15.336;2023-12-07T01:38:42;17.70;;;9.80;;
3841;SDS011;1936;47.074;15.336;2023-12-07T01:40:46;40.92;;;10.45;;
3841;SDS011;1936;47.074;15.336;2023-12-07T01:42:50;15.45;;;8.95;;
3841;SDS011;1936;47.074;15.336;2023-12-07T01:44:54;21.58;;;9.20;;
3841;SDS011;1936;47.074;15.336;2023-12-07T01:46:59;18.05;;;9.65;;
3841;SDS011;1936;47.074;15.336;2023-12-07T01:49:01;17.38;;;8.25;;
3841;SDS011;1936;47.074;15.336;2023-12-07T01:51:05;20.60;;;10.93;;
3841;SDS011;1936;47.074;15.336;2023-12-07T01:53:09;19.25;;;9.30;;
3841;SDS011;1936;47.074;15.336;2023-12-07T01:55:14;19.98;;;9.90;;
3841;SDS011;1936;47.074;15.336;2023-12-07T01:57:18;19.63;;;10.13;;
3841;SDS011;1936;47.074;15.336;2023-12-07T01:59:22;15.93;;;7.88;;
3841;SDS011;1936;47.074;15.336;2023-12-07T02:01:27;25.55;;;10.15;;
3841;SDS011;1936;47.074;15.336;2023-12-07T02:03:32;15.95;;;8.48;;
3841;SDS011;1936;47.074;15.336;2023-12-07T02:05:35;16.45;;;7.55;;
3841;SDS011;1936;47.074;15.336;2023-12-07T02:07:40;12.52;;;6.50;;
3841;SDS011;1936;47.074;15.336;2023-12-07T02:09:44;14.52;;;8.25;;
3841;SDS011;1936;47.074;15.336;2023-12-07T02:11:48;17.35;;;7.45;;
3841;SDS011;1936;47.074;15.336;2023-12-07T02:13:50;13.20;;;6.72;;
3841;SDS011;1936;47.074;15.336;2023-12-07T02:15:57;12.27;;;7.38;;
3841;SDS011;1936;47.074;15.336;2023-12-07T02:18:03;10.30;;;6.80;;
3841;SDS011;1936;47.074;15.336;2023-12-07T02:20:28;8.80;;;5.03;;
3841;SDS011;1936;47.074;15.336;2023-12-07T02:22:37;8.88;;;4.63;;
3841;SDS011;1936;47.074;15.336;2023-12-07T02:24:45;6.15;;;3.78;;
3841;SDS011;1936;47.074;15.336;2023-12-07T02:27:05;7.15;;;4.20;;
3841;SDS011;1936;47.074;15.336;2023-12-07T02:29:08;7.60;;;3.17;;
3841;SDS011;1936;47.074;15.336;2023-12-07T02:31:12;8.80;;;4.03;;
3841;SDS011;1936;47.074;15.336;2023-12-07T02:33:15;6.72;;;4.32;;
3841;SDS011;1936;47.074;15.336;2023-12-07T02:35:19;6.15;;;3.83;;
3841;SDS011;1936;47.074;15.336;2023-12-07T02:37:21;6.72;;;3.97;;
3841;SDS011;1936;47.074;15.336;2023-12-07T02:39:28;4.05;;;3.15;;
3841;SDS011;1936;47.074;15.336;2023-12-07T02:41:32;7.03;;;4.30;;
3841;SDS011;1936;47.074;15.336;2023-12-07T02:43:36;8.88;;;4.28;;
3841;SDS011;1936;47.074;15.336;2023-12-07T02:45:40;8.18;;;3.85;;
3841;SDS011;1936;47.074;15.336;2023-12-07T02:47:44;5.32;;;2.67;;
3841;SDS011;1936;47.074;15.336;2023-12-07T02:49:48;6.32;;;4.60;;
3841;SDS011;1936;47.074;15.336;2023-12-07T02:51:51;10.90;;;5.00;;
3841;SDS011;1936;47.074;15.336;2023-12-07T02:53:54;8.52;;;3.10;;
3841;SDS011;1936;47.074;15.336;2023-12-07T02:55:58;8.63;;;3.67;;
3841;SDS011;1936;47.074;15.336;2023-12-07T02:58:01;5.53;;;3.30;;
3841;SDS011;1936;47.074;15.336;2023-12-07T03:00:07;6.13;;;3.72;;
3841;SDS011;1936;47.074;15.336;2023-12-07T03:02:13;6.40;;;4.07;;
3841;SDS011;1936;47.074;15.336;2023-12-07T03:04:16;8.13;;;4.75;;
3841;SDS011;1936;47.074;15.336;2023-12-07T03:06:19;13.30;;;5.60;;
3841;SDS011;1936;47.074;15.336;2023-12-07T03:08:23;9.95;;;5.28;;
3841;SDS011;1936;47.074;15.336;2023-12-07T03:10:26;7.88;;;4.63;;
3841;SDS011;1936;47.074;15.336;2023-12-07T03:12:29;8.25;;;5.10;;
3841;SDS011;1936;47.074;15.336;2023-12-07T03:14:32;6.32;;;4.32;;
3841;SDS011;1936;47.074;15.336;2023-12-07T03:16:37;5.35;;;3.22;;
3841;SDS011;1936;47.074;15.336;2023-12-07T03:18:41;6.40;;;3.80;;
3841;SDS011;1936;47.074;15.336;2023-12-07T03:20:45;5.13;;;3.05;;
3841;SDS011;1936;47.074;15.336;2023-12-07T03:22:48;3.85;;;2.83;;
3841;SDS011;1936;47.074;15.336;2023-12-07T03:24:52;6.80;;;3.90;;
3841;SDS011;1936;47.074;15.336;2023-12-07T03:26:56;2.55;;;2.20;;
3841;SDS011;1936;47.074;15.336;2023-12-07T03:28:58;3.85;;;2.53;;
3841;SDS011;1936;47.074;15.336;2023-12-07T03:31:02;3.03;;;2.15;;
3841;SDS011;1936;47.074;15.336;2023-12-07T03:33:07;3.88;;;2.30;;
3841;SDS011;1936;47.074;15.336;2023-12-07T03:35:11;3.15;;;2.25;;
3841;SDS011;1936;47.074;15.336;2023-12-07T03:37:14;5.90;;;3.05;;
3841;SDS011;1936;47.074;15.336;2023-12-07T03:39:17;4.45;;;3.38;;
3841;SDS011;1936;47.074;15.336;2023-12-07T03:41:23;4.53;;;2.65;;
3841;SDS011;1936;47.074;15.336;2023-12-07T03:43:26;2.25;;;2.05;;
3841;SDS011;1936;47.074;15.336;2023-12-07T03:45:30;4.20;;;1.98;;
3841;SDS011;1936;47.074;15.336;2023-12-07T03:47:33;1.83;;;1.55;;
3841;SDS011;1936;47.074;15.336;2023-12-07T03:49:39;1.80;;;1.70;;
3841;SDS011;1936;47.074;15.336;2023-12-07T03:51:42;3.25;;;2.55;;
3841;SDS011;1936;47.074;15.336;2023-12-07T03:53:46;1.70;;;1.42;;
3841;SDS011;1936;47.074;15.336;2023-12-07T03:55:52;2.53;;;2.28;;
3841;SDS011;1936;47.074;15.336;2023-12-07T03:57:55;2.45;;;1.63;;
3841;SDS011;1936;47.074;15.336;2023-12-07T03:59:58;2.53;;;1.90;;
3841;SDS011;1936;47.074;15.336;2023-12-07T04:02:02;3.08;;;2.30;;
3841;SDS011;1936;47.074;15.336;2023-12-07T04:04:05;4.35;;;2.40;;
3841;SDS011;1936;47.074;15.336;2023-12-07T04:06:10;2.20;;;1.77;;
3841;SDS011;1936;47.074;15.336;2023-12-07T04:08:12;3.08;;;2.00;;
3841;SDS011;1936;47.074;15.336;2023-12-07T04:10:15;2.58;;;2.03;;
3841;SDS011;1936;47.074;15.336;2023-12-07T04:12:19;3.28;;;2.10;;
3841;SDS011;1936;47.074;15.336;2023-12-07T04:14:23;2.00;;;1.45;;
3841;SDS011;1936;47.074;15.336;2023-12-07T04:16:26;2.05;;;1.73;;
3841;SDS011;1936;47.074;15.336;2023-12-07T04:18:30;2.33;;;1.60;;
3841;SDS011;1936;47.074;15.336;2023-12-07T04:20:33;1.35;;;1.05;;
3841;SDS011;1936;47.074;15.336;2023-12-07T04:22:37;1.90;;;1.50;;
3841;SDS011;1936;47.074;15.336;2023-12-07T04:24:40;5.85;;;1.30;;
3841;SDS011;1936;47.074;15.336;2023-12-07T04:26:44;1.05;;;0.90;;
3841;SDS011;1936;47.074;15.336;2023-12-07T04:28:47;1.23;;;1.00;;
3841;SDS011;1936;47.074;15.336;2023-12-07T04:30:51;1.80;;;1.60;;
3841;SDS011;1936;47.074;15.336;2023-12-07T04:32:54;1.63;;;1.00;;
3841;SDS011;1936;47.074;15.336;2023-12-07T04:34:57;1.35;;;1.08;;
3841;SDS011;1936;47.074;15.336;2023-12-07T04:37:00;1.48;;;1.10;;
3841;SDS011;1936;47.074;15.336;2023-12-07T04:39:05;1.98;;;1.05;;
3841;SDS011;1936;47.074;15.336;2023-12-07T04:41:09;1.45;;;1.25;;
3841;SDS011;1936;47.074;15.336;2023-12-07T04:43:13;1.70;;;1.23;;
3841;SDS011;1936;47.074;15.336;2023-12-07T04:45:16;1.70;;;1.10;;
3841;SDS011;1936;47.074;15.336;2023-12-07T04:47:20;2.05;;;1.38;;
3841;SDS011;1936;47.074;15.336;2023-12-07T04:49:25;1.20;;;0.90;;
3841;SDS011;1936;47.074;15.336;2023-12-07T04:51:29;2.05;;;1.30;;
3841;SDS011;1936;47.074;15.336;2023-12-07T04:53:32;1.30;;;1.20;;
3841;SDS011;1936;47.074;15.336;2023-12-07T04:55:36;3.75;;;1.15;;
3841;SDS011;1936;47.074;15.336;2023-12-07T04:57:41;1.27;;;1.13;;
3841;SDS011;1936;47.074;15.336;2023-12-07T04:59:46;2.15;;;1.30;;
3841;SDS011;1936;47.074;15.336;2023-12-07T05:01:50;0.90;;;0.70;;
3841;SDS011;1936;47.074;15.336;2023-12-07T05:03:53;1.75;;;1.20;;
3841;SDS011;1936;47.074;15.336;2023-12-07T05:05:56;0.80;;;0.63;;
3841;SDS011;1936;47.074;15.336;2023-12-07T05:08:00;1.90;;;0.93;;
3841;SDS011;1936;47.074;15.336;2023-12-07T05:10:04;3.80;;;1.10;;
3841;SDS011;1936;47.074;15.336;2023-12-07T05:12:10;1.88;;;1.02;;
3841;SDS011;1936;47.074;15.336;2023-12-07T05:14:13;1.60;;;0.95;;
3841;SDS011;1936;47.074;15.336;2023-12-07T05:16:16;1.20;;;1.10;;
3841;SDS011;1936;47.074;15.336;2023-12-07T05:18:20;4.65;;;1.25;;
3841;SDS011;1936;47.074;15.336;2023-12-07T05:20:23;1.40;;;1.13;;
3841;SDS011;1936;47.074;15.336;2023-12-07T05:22:29;4.60;;;2.58;;
3841;SDS011;1936;47.074;15.336;2023-12-07T05:24:31;2.50;;;2.10;;
3841;SDS011;1936;47.074;15.336;2023-12-07T05:26:36;3.38;;;2.20;;
3841;SDS011;1936;47.074;15.336;2023-12-07T05:28:41;2.25;;;2.05;;
3841;SDS011;1936;47.074;15.336;2023-12-07T05:30:45;3.15;;;1.90;;
3841;SDS011;1936;47.074;15.336;2023-12-07T05:32:49;2.22;;;1.55;;
3841;SDS011;1936;47.074;15.336;2023-12-07T05:34:53;2.60;;;2.38;;
3841;SDS011;1936;47.074;15.336;2023-12-07T05:36:56;2.60;;;2.38;;
3841;SDS011;1936;47.074;15.336;2023-12-07T05:39:00;4.22;;;2.60;;
3841;SDS011;1936;47.074;15.336;2023-12-07T05:41:04;3.85;;;2.55;;
3841;SDS011;1936;47.074;15.336;2023-12-07T05:43:08;3.90;;;2.97;;
3841;SDS011;1936;47.074;15.336;2023-12-07T05:45:13;3.33;;;2.65;;
3841;SDS011;1936;47.074;15.336;2023-12-07T05:47:17;4.00;;;3.10;;
3841;SDS011;1936;47.074;15.336;2023-12-07T05:49:21;3.83;;;2.90;;
3841;SDS011;1936;47.074;15.336;2023-12-07T05:51:24;3.05;;;2.72;;
3841;SDS011;1936;47.074;15.336;2023-12-07T05:53:27;3.35;;;3.03;;
3841;SDS011;1936;47.074;15.336;2023-12-07T05:55:31;2.88;;;2.40;;
3841;SDS011;1936;47.074;15.336;2023-12-07T05:57:35;2.72;;;2.45;;
3841;SDS011;1936;47.074;15.336;2023-12-07T05:59:39;3.25;;;2.92;;
3841;SDS011;1936;47.074;15.336;2023-12-07T06:01:44;4.00;;;3.33;;
3841;SDS011;1936;47.074;15.336;2023-12-07T06:03:48;4.80;;;3.30;;
3841;SDS011;1936;47.074;15.336;2023-12-07T06:05:52;7.80;;;2.95;;
3841;SDS011;1936;47.074;15.336;2023-12-07T06:07:55;3.92;;;3.20;;
3841;SDS011;1936;47.074;15.336;2023-12-07T06:10:00;2.88;;;2.20;;
3841;SDS011;1936;47.074;15.336;2023-12-07T06:12:03;3.20;;;2.90;;
3841;SDS011;1936;47.074;15.336;2023-12-07T06:14:07;3.90;;;3.50;;
3841;SDS011;1936;47.074;15.336;2023-12-07T06:16:11;5.57;;;4.05;;
3841;SDS011;1936;47.074;15.336;2023-12-07T06:18:16;4.25;;;3.88;;
3841;SDS011;1936;47.074;15.336;2023-12-07T06:20:22;5.53;;;3.53;;
3841;SDS011;1936;47.074;15.336;2023-12-07T06:22:26;3.45;;;3.15;;
3841;SDS011;1936;47.074;15.336;2023-12-07T06:24:29;5.45;;;4.25;;
3841;SDS011;1936;47.074;15.336;2023-12-07T06:26:33;4.68;;;3.80;;
3841;SDS011;1936;47.074;15.336;2023-12-07T06:28:37;4.20;;;3.80;;
3841;SDS011;1936;47.074;15.336;2023-12-07T06:30:41;4.13;;;3.72;;
3841;SDS011;1936;47.074;15.336;2023-12-07T06:32:46;4.70;;;4.30;;
3841;SDS011;1936;47.074;15.336;2023-12-07T06:34:52;4.20;;;3.75;;
3841;SDS011;1936;47.074;15.336;2023-12-07T06:36:56;5.00;;;4.50;;
3841;SDS011;1936;47.074;15.336;2023-12-07T06:38:59;4.75;;;4.05;;
3841;SDS011;1936;47.074;15.336;2023-12-07T06:41:04;4.13;;;3.35;;
3841;SDS011;1936;47.074;15.336;2023-12-07T06:43:08;4.80;;;3.92;;
3841;SDS011;1936;47.074;15.336;2023-12-07T06:45:12;5.45;;;4.32;;
3841;SDS011;1936;47.074;15.336;2023-12-07T06:47:24;4.20;;;3.70;;
3841;SDS011;1936;47.074;15.336;2023-12-07T06:49:27;6.57;;;4.80;;
3841;SDS011;1936;47.074;15.336;2023-12-07T06:51:49;5.03;;;3.85;;
3841;SDS011;1936;47.074;15.336;2023-12-07T06:53:52;4.60;;;4.00;;
3841;SDS011;1936;47.074;15.336;2023-12-07T06:55:56;3.92;;;3.55;;
3841;SDS011;1936;47.074;15.336;2023-12-07T06:57:59;6.57;;;3.70;;
3841;SDS011;1936;47.074;15.336;2023-12-07T07:00:03;3.90;;;3.50;;
3841;SDS011;1936;47.074;15.336;2023-12-07T07:02:12;4.68;;;4.18;;
3841;SDS011;1936;47.074;15.336;2023-12-07T07:04:16;5.45;;;4.65;;
3841;SDS011;1936;47.074;15.336;2023-12-07T07:06:20;3.85;;;3.35;;
3841;SDS011;1936;47.074;15.336;2023-12-07T07:08:25;4.45;;;3.90;;
3841;SDS011;1936;47.074;15.336;2023-12-07T07:10:29;4.00;;;3.17;;
3841;SDS011;1936;47.074;15.336;2023-12-07T07:12:32;6.40;;;4.63;;
3841;SDS011;1936;47.074;15.336;2023-12-07T07:14:36;6.85;;;5.88;;
3841;SDS011;1936;47.074;15.336;2023-12-07T07:16:40;6.50;;;5.75;;
3841;SDS011;1936;47.074;15.336;2023-12-07T07:18:43;5.20;;;4.70;;
3841;SDS011;1936;47.074;15.336;2023-12-07T07:20:47;6.18;;;4.90;;
3841;SDS011;1936;47.074;15.336;2023-12-07T07:22:51;8.35;;;5.20;;
3841;SDS011;1936;47.074;15.336;2023-12-07T07:24:56;7.03;;;6.00;;
3841;SDS011;1936;47.074;15.336;2023-12-07T07:27:00;9.30;;;7.05;;
3841;SDS011;1936;47.074;15.336;2023-12-07T07:29:04;8.90;;;7.80;;
3841;SDS011;1936;47.074;15.336;2023-12-07T07:31:08;7.38;;;6.45;;
3841;SDS011;1936;47.074;15.336;2023-12-07T07:33:12;8.15;;;7.35;;
3841;SDS011;1936;47.074;15.336;2023-12-07T07:35:15;10.63;;;7.35;;
3841;SDS011;1936;47.074;15.336;2023-12-07T07:37:19;7.57;;;6.57;;
3841;SDS011;1936;47.074;15.336;2023-12-07T07:39:23;8.82;;;6.70;;
3841;SDS011;1936;47.074;15.336;2023-12-07T07:41:28;7.45;;;6.75;;
3841;SDS011;1936;47.074;15.336;2023-12-07T07:43:32;8.20;;;7.30;;
3841;SDS011;1936;47.074;15.336;2023-12-07T07:45:36;8.45;;;7.55;;
3841;SDS011;1936;47.074;15.336;2023-12-07T07:47:38;9.15;;;6.63;;
3841;SDS011;1936;47.074;15.336;2023-12-07T07:49:43;7.75;;;6.25;;
3841;SDS011;1936;47.074;15.336;2023-12-07T07:51:46;7.25;;;5.80;;
3841;SDS011;1936;47.074;15.336;2023-12-07T07:53:50;6.75;;;6.07;;
3841;SDS011;1936;47.074;15.336;2023-12-07T07:55:57;6.18;;;5.55;;
3841;SDS011;1936;47.074;15.336;2023-12-07T07:58:02;14.52;;;11.02;;
3841;SDS011;1936;47.074;15.336;2023-12-07T08:00:06;14.95;;;11.30;;
3841;SDS011;1936;47.074;15.336;2023-12-07T08:02:10;9.20;;;7.78;;
3841;SDS011;1936;47.074;15.336;2023-12-07T08:04:14;9.38;;;7.07;;
3841;SDS011;1936;47.074;15.336;2023-12-07T08:06:18;14.60;;;8.30;;
3841;SDS011;1936;47.074;15.336;2023-12-07T08:08:22;6.47;;;5.80;;
3841;SDS011;1936;47.074;15.336;2023-12-07T08:10:27;10.13;;;8.35;;
3841;SDS011;1936;47.074;15.336;2023-12-07T08:12:30;11.02;;;8.93;;
3841;SDS011;1936;47.074;15.336;2023-12-07T08:14:36;11.05;;;8.85;;
3841;SDS011;1936;47.074;15.336;2023-12-07T08:16:42;7.30;;;6.35;;
3841;SDS011;1936;47.074;15.336;2023-12-07T08:18:45;11.88;;;8.00;;
3841;SDS011;1936;47.074;15.336;2023-12-07T08:20:49;8.55;;;6.88;;
3841;SDS011;1936;47.074;15.336;2023-12-07T08:22:53;10.63;;;8.20;;
3841;SDS011;1936;47.074;15.336;2023-12-07T08:24:57;7.85;;;6.60;;
3841;SDS011;1936;47.074;15.336;2023-12-07T08:27:11;2250.00;;;510.58;;
3841;SDS011;1936;47.074;15.336;2023-12-07T08:29:15;1946.68;;;346.27;;
3841;SDS011;1936;47.074;15.336;2023-12-07T08:31:21;2250.00;;;579.90;;
3841;SDS011;1936;47.074;15.336;2023-12-07T08:33:26;10.43;;;9.10;;
3841;SDS011;1936;47.074;15.336;2023-12-07T08:35:30;8.65;;;7.85;;
3841;SDS011;1936;47.074;15.336;2023-12-07T08:37:34;11.73;;;10.63;;
3841;SDS011;1936;47.074;15.336;2023-12-07T08:39:40;5.40;;;4.90;;
3841;SDS011;1936;47.074;15.336;2023-12-07T08:41:43;4.53;;;4.13;;
3841;SDS011;1936;47.074;15.336;2023-12-07T08:43:47;5.27;;;4.70;;
3841;SDS011;1936;47.074;15.336;2023-12-07T08:45:51;7.87;;;6.90;;
3841;SDS011;1936;47.074;15.336;2023-12-07T08:48:03;6.63;;;6.00;;
3841;SDS011;1936;47.074;15.336;2023-12-07T08:50:07;8.10;;;6.50;;
3841;SDS011;1936;47.074;15.336;2023-12-07T08:52:11;7.33;;;6.57;;
3841;SDS011;1936;47.074;15.336;2023-12-07T08:54:32;6.47;;;5.90;;
3841;SDS011;1936;47.074;15.336;2023-12-07T08:56:35;7.50;;;6.87;;
3841;SDS011;1936;47.074;15.336;2023-12-07T08:58:38;7.63;;;6.97;;
3841;SDS011;1936;47.074;15.336;2023-12-07T09:00:42;6.47;;;5.87;;
3841;SDS011;1936;47.074;15.336;2023-12-07T09:02:46;6.00;;;5.50;;
3841;SDS011;1936;47.074;15.336;2023-12-07T09:04:50;6.10;;;5.60;;
3841;SDS011;1936;47.074;15.336;2023-12-07T09:06:54;5.50;;;5.10;;
3841;SDS011;1936;47.074;15.336;2023-12-07T09:08:56;5.07;;;4.57;;
3841;SDS011;1936;47.074;15.336;2023-12-07T09:11:00;4.50;;;4.20;;
3841;SDS011;1936;47.074;15.336;2023-12-07T09:13:05;4.90;;;4.50;;
3841;SDS011;1936;47.074;15.336;2023-12-07T09:15:09;5.10;;;4.43;;
3841;SDS011;1936;47.074;15.336;2023-12-07T09:17:13;4.90;;;4.50;;
3841;SDS011;1936;47.074;15.336;2023-12-07T09:19:16;4.20;;;3.90;;
3841;SDS011;1936;47.074;15.336;2023-12-07T09:21:21;3.60;;;3.30;;
3841;SDS011;1936;47.074;15.336;2023-12-07T09:23:25;3.43;;;3.13;;
3841;SDS011;1936;47.074;15.336;2023-12-07T09:25:28;3.00;;;2.80;;
3841;SDS011;1936;47.074;15.336;2023-12-07T09:27:31;2.90;;;2.70;;
3841;SDS011;1936;47.074;15.336;2023-12-07T09:29:36;2.00;;;1.83;;
3841;SDS011;1936;47.074;15.336;2023-12-07T09:31:39;2.73;;;2.53;;
3841;SDS011;1936;47.074;15.336;2023-12-07T09:33:43;2.37;;;2.20;;
3841;SDS011;1936;47.074;15.336;2023-12-07T09:35:49;1.43;;;1.33;;
3841;SDS011;1936;47.074;15.336;2023-12-07T09:37:54;1.63;;;1.33;;
3841;SDS011;1936;47.074;15.336;2023-12-07T09:39:57;1.77;;;1.67;;
3841;SDS011;1936;47.074;15.336;2023-12-07T09:42:01;2.13;;;1.20;;
3841;SDS011;1936;47.074;15.336;2023-12-07T09:44:05;2.43;;;1.77;;
3841;SDS011;1936;47.074;15.336;2023-12-07T09:46:09;1.60;;;1.50;;
3841;SDS011;1936;47.074;15.336;2023-12-07T09:48:13;1.20;;;1.10;;
3841;SDS011;1936;47.074;15.336;2023-12-07T09:50:16;1.20;;;0.90;;
3841;SDS011;1936;47.074;15.336;2023-12-07T09:52:23;1.73;;;1.40;;
3841;SDS011;1936;47.074;15.336;2023-12-07T09:54:28;1.03;;;0.97;;
3841;SDS011;1936;47.074;15.336;2023-12-07T09:56:32;1.37;;;0.90;;
3841;SDS011;1936;47.074;15.336;2023-12-07T09:58:39;0.90;;;0.80;;
3841;SDS011;1936;47.074;15.336;2023-12-07T10:00:43;1.33;;;1.03;;
3841;SDS011;1936;47.074;15.336;2023-12-07T10:02:47;1.00;;;0.80;;
3841;SDS011;1936;47.074;15.336;2023-12-07T10:05:03;1.30;;;0.90;;
3841;SDS011;1936;47.074;15.336;2023-12-07T10:07:07;0.93;;;0.83;;
3841;SDS011;1936;47.074;15.336;2023-12-07T10:09:11;3.27;;;1.00;;
3841;SDS011;1936;47.074;15.336;2023-12-07T10:11:25;1.00;;;0.80;;
3841;SDS011;1936;47.074;15.336;2023-12-07T10:13:30;1.37;;;0.90;;
3841;SDS011;1936;47.074;15.336;2023-12-07T10:15:32;1.00;;;0.90;;
3841;SDS011;1936;47.074;15.336;2023-12-07T10:17:45;1.17;;;1.07;;
3841;SDS011;1936;47.074;15.336;2023-12-07T10:22:13;1.30;;;1.10;;
3841;SDS011;1936;47.074;15.336;2023-12-07T10:24:17;1.63;;;1.00;;
3841;SDS011;1936;47.074;15.336;2023-12-07T10:26:21;1.00;;;0.90;;
3841;SDS011;1936;47.074;15.336;2023-12-07T10:28:25;1.77;;;1.23;;
3841;SDS011;1936;47.074;15.336;2023-12-07T10:30:29;1.13;;;1.00;;
3841;SDS011;1936;47.074;15.336;2023-12-07T10:32:35;1.47;;;1.37;;
3841;SDS011;1936;47.074;15.336;2023-12-07T10:34:40;1.23;;;1.13;;
3841;SDS011;1936;47.074;15.336;2023-12-07T10:36:44;1.40;;;1.30;;
3841;SDS011;1936;47.074;15.336;2023-12-07T10:38:49;1.40;;;1.30;;
3841;SDS011;1936;47.074;15.336;2023-12-07T10:40:58;1.70;;;1.37;;
3841;SDS011;1936;47.074;15.336;2023-12-07T10:43:08;1.53;;;1.40;;
3841;SDS011;1936;47.074;15.336;2023-12-07T10:45:13;1.23;;;1.10;;
3841;SDS011;1936;47.074;15.336;2023-12-07T10:47:18;1.53;;;1.10;;
3841;SDS011;1936;47.074;15.336;2023-12-07T10:49:24;2.10;;;1.80;;
3841;SDS011;1936;47.074;15.336;2023-12-07T10:51:37;1.47;;;1.20;;
3841;SDS011;1936;47.074;15.336;2023-12-07T10:53:50;1.23;;;1.13;;
3841;SDS011;1936;47.074;15.336;2023-12-07T10:55:55;1.40;;;1.30;;
3841;SDS011;1936;47.074;15.336;2023-12-07T10:58:02;1.90;;;1.43;;
3841;SDS011;1936;47.074;15.336;2023-12-07T11:00:09;1.37;;;1.27;;
3841;SDS011;1936;47.074;15.336;2023-12-07T11:02:15;1.53;;;1.43;;
3841;SDS011;1936;47.074;15.336;2023-12-07T11:04:22;1.50;;;1.30;;
3841;SDS011;1936;47.074;15.336;2023-12-07T11:06:26;1.57;;;1.47;;
3841;SDS011;1936;47.074;15.336;2023-12-07T11:08:31;2.23;;;1.43;;
3841;SDS011;1936;47.074;15.336;2023-12-07T11:10:39;1.60;;;1.50;;
3841;SDS011;1936;47.074;15.336;2023-12-07T11:12:49;1.47;;;1.37;;
3841;SDS011;1936;47.074;15.336;2023-12-07T11:14:59;1.50;;;1.20;;
3841;SDS011;1936;47.074;15.336;2023-12-07T11:17:02;4.87;;;1.37;;
3841;SDS011;1936;47.074;15.336;2023-12-07T11:19:13;1.80;;;1.20;;
3841;SDS011;1936;47.074;15.336;2023-12-07T11:21:52;1.23;;;1.13;;
3841;SDS011;1936;47.074;15.336;2023-12-07T11:23:55;1.93;;;1.73;;
3841;SDS011;1936;47.074;15.336;2023-12-07T11:26:02;1.57;;;1.47;;
3841;SDS011;1936;47.074;15.336;2023-12-07T11:28:07;1.47;;;1.30;;
3841;SDS011;1936;47.074;15.336;2023-12-07T11:30:13;1.53;;;1.37;;
3841;SDS011;1936;47.074;15.336;2023-12-07T11:32:16;1.70;;;1.60;;
3841;SDS011;1936;47.074;15.336;2023-12-07T11:34:36;1.47;;;1.37;;
3841;SDS011;1936;47.074;15.336;2023-12-07T11:36:40;2.33;;;1.10;;
3841;SDS011;1936;47.074;15.336;2023-12-07T11:39:15;1.20;;;1.10;;
3841;SDS011;1936;47.074;15.336;2023-12-07T11:41:29;1.30;;;1.20;;
3841;SDS011;1936;47.074;15.336;2023-12-07T11:43:37;1.57;;;1.23;;
3841;SDS011;1936;47.074;15.336;2023-12-07T11:45:48;1.37;;;1.20;;
3841;SDS011;1936;47.074;15.336;2023-12-07T11:48:05;1.60;;;1.50;;
3841;SDS011;1936;47.074;15.336;2023-12-07T11:50:13;2.20;;;1.70;;
3841;SDS011;1936;47.074;15.336;2023-12-07T11:52:17;7.90;;;1.43;;
3841;SDS011;1936;47.074;15.336;2023-12-07T11:54:22;1.13;;;1.03;;
3841;SDS011;1936;47.074;15.336;2023-12-07T11:56:25;1.60;;;1.33;;
3841;SDS011;1936;47.074;15.336;2023-12-07T11:58:29;2.27;;;1.80;;
3841;SDS011;1936;47.074;15.336;2023-12-07T12:00:37;1.80;;;1.40;;
3841;SDS011;1936;47.074;15.336;2023-12-07T12:02:42;1.50;;;1.40;;
3841;SDS011;1936;47.074;15.336;2023-12-07T12:04:45;1.60;;;1.50;;
3841;SDS011;1936;47.074;15.336;2023-12-07T12:06:50;1.60;;;1.30;;
3841;SDS011;1936;47.074;15.336;2023-12-07T12:08:55;1.70;;;1.57;;
3841;SDS011;1936;47.074;15.336;2023-12-07T12:10:59;2.27;;;1.47;;
3841;SDS011;1936;47.074;15.336;2023-12-07T12:13:02;1.93;;;1.50;;
3841;SDS011;1936;47.074;15.336;2023-12-07T12:15:06;1.33;;;1.23;;
3841;SDS011;1936;47.074;15.336;2023-12-07T12:17:10;1.77;;;1.60;;
3841;SDS011;1936;47.074;15.336;2023-12-07T12:19:18;2.37;;;1.87;;
3841;SDS011;1936;47.074;15.336;2023-12-07T12:21:33;1.60;;;1.50;;
3841;SDS011;1936;47.074;15.336;2023-12-07T12:23:38;1.77;;;1.67;;
3841;SDS011;1936;47.074;15.336;2023-12-07T12:25:41;1.73;;;1.40;;
3841;SDS011;1936;47.074;15.336;2023-12-07T12:27:45;1.50;;;1.40;;
3841;SDS011;1936;47.074;15.336;2023-12-07T12:29:49;2.27;;;2.07;;
3841;SDS011;1936;47.074;15.336;2023-12-07T12:31:53;1.50;;;1.40;;
3841;SDS011;1936;47.074;15.336;2023-12-07T12:33:56;2.00;;;1.67;;
3841;SDS011;1936;47.074;15.336;2023-12-07T12:36:07;2.07;;;1.73;;
3841;SDS011;1936;47.074;15.336;2023-12-07T12:38:12;1.83;;;1.33;;
3841;SDS011;1936;47.074;15.336;2023-12-07T12:40:29;1.27;;;1.07;;
3841;SDS011;1936;47.074;15.336;2023-12-07T12:42:33;1.30;;;1.00;;